createdAt,value
2023-01-22T00:00:31.262Z,0.00
2023-01-22T00:01:31.285Z,0.00
2023-01-22T00:02:31.439Z,0.00
2023-01-22T00:03:31.349Z,0.00
2023-01-22T00:04:31.348Z,0.00
2023-01-22T00:05:31.368Z,0.00
2023-01-22T00:06:31.385Z,0.00
2023-01-22T00:07:31.411Z,0.00
2023-01-22T00:08:31.466Z,0.00
2023-01-22T00:09:31.451Z,0.00
2023-01-22T00:10:31.469Z,0.00
2023-01-22T00:11:31.495Z,0.00
2023-01-22T00:12:31.511Z,0.00
2023-01-22T00:13:31.536Z,0.00
2023-01-22T00:14:31.606Z,0.00
2023-01-22T00:15:31.584Z,0.00
2023-01-22T00:16:31.594Z,0.00
2023-01-22T00:17:31.615Z,0.00
2023-01-22T00:18:31.646Z,0.00
2023-01-22T00:19:31.660Z,0.00
2023-01-22T00:20:31.676Z,0.00
2023-01-22T00:21:31.699Z,0.00
2023-01-22T00:22:31.720Z,0.00
2023-01-22T00:23:31.748Z,0.00
2023-01-22T00:24:31.787Z,0.00
2023-01-22T00:25:31.782Z,0.00
2023-01-22T00:26:31.804Z,0.00
2023-01-22T00:27:31.831Z,0.00
2023-01-22T00:28:31.848Z,0.00
2023-01-22T00:29:31.967Z,0.00
2023-01-22T00:30:31.886Z,0.00
2023-01-22T00:31:32.083Z,0.00
2023-01-22T00:32:31.926Z,0.00
2023-01-22T00:33:31.951Z,0.00
2023-01-22T00:34:31.967Z,0.00
2023-01-22T00:35:31.991Z,0.00
2023-01-22T00:36:32.006Z,0.00
2023-01-22T00:37:32.041Z,0.00
2023-01-22T00:38:32.049Z,0.00
2023-01-22T00:39:32.080Z,0.00
2023-01-22T00:40:32.107Z,0.00
2023-01-22T00:41:32.120Z,0.00
2023-01-22T00:42:32.160Z,0.00
2023-01-22T00:43:32.160Z,0.00
2023-01-22T00:44:32.185Z,0.00
2023-01-22T00:45:32.196Z,0.00
2023-01-22T00:46:32.213Z,0.00
2023-01-22T00:47:32.235Z,0.00
2023-01-22T00:48:32.261Z,0.00
2023-01-22T00:49:32.276Z,0.00
2023-01-22T00:50:32.300Z,0.00
2023-01-22T00:51:32.319Z,0.00
2023-01-22T00:52:32.335Z,0.00
2023-01-22T00:53:32.366Z,0.00
2023-01-22T00:54:32.379Z,0.00
2023-01-22T00:55:32.406Z,0.00
2023-01-22T00:56:32.447Z,0.00
2023-01-22T00:57:32.443Z,0.00
2023-01-22T00:58:32.460Z,0.00
2023-01-22T00:59:32.485Z,0.00
2023-01-22T01:00:32.556Z,0.00
2023-01-22T01:01:32.523Z,0.00
2023-01-22T01:02:32.544Z,0.00
2023-01-22T01:03:32.559Z,0.00
2023-01-22T01:04:32.585Z,0.00
2023-01-22T01:05:32.610Z,0.00
2023-01-22T01:06:32.625Z,0.00
2023-01-22T01:07:32.644Z,0.00
2023-01-22T01:08:32.686Z,0.00
2023-01-22T01:09:32.688Z,0.00
2023-01-22T01:10:32.706Z,0.00
2023-01-22T01:11:32.727Z,0.00
2023-01-22T01:12:32.867Z,0.00
2023-01-22T01:13:32.770Z,0.00
2023-01-22T01:14:32.791Z,0.00
2023-01-22T01:15:32.813Z,0.00
2023-01-22T01:16:32.839Z,0.00
2023-01-22T01:17:32.852Z,0.00
2023-01-22T01:18:32.869Z,0.00
2023-01-22T01:19:32.893Z,0.00
2023-01-22T01:20:32.915Z,0.00
2023-01-22T01:21:32.932Z,0.00
2023-01-22T01:22:32.951Z,0.00
2023-01-22T01:23:32.973Z,0.00
2023-01-22T01:24:32.995Z,0.00
2023-01-22T01:25:33.023Z,0.00
2023-01-22T01:26:33.041Z,0.00
2023-01-22T01:27:33.059Z,0.00
2023-01-22T01:28:33.187Z,0.00
2023-01-22T01:29:33.095Z,0.00
2023-01-22T01:30:33.136Z,0.00
2023-01-22T01:31:33.173Z,0.00
2023-01-22T01:32:33.160Z,0.00
2023-01-22T01:33:33.195Z,0.00
2023-01-22T01:34:33.209Z,0.00
2023-01-22T01:35:33.235Z,0.00
2023-01-22T01:36:48.223Z,0.00
2023-01-22T01:37:33.267Z,0.00
2023-01-22T01:38:33.288Z,0.00
2023-01-22T01:39:33.299Z,0.00
2023-01-22T01:40:33.319Z,0.00
2023-01-22T01:41:33.355Z,0.00
2023-01-22T01:42:33.360Z,0.00
2023-01-22T01:43:33.382Z,0.00
2023-01-22T01:44:33.523Z,0.00
2023-01-22T01:45:33.430Z,0.00
2023-01-22T01:46:33.464Z,0.00
2023-01-22T01:47:33.466Z,0.00
2023-01-22T01:48:33.484Z,0.00
2023-01-22T01:49:33.508Z,0.00
2023-01-22T01:50:33.526Z,0.00
2023-01-22T01:51:33.549Z,0.00
2023-01-22T01:52:33.577Z,0.00
2023-01-22T01:53:33.596Z,0.00
2023-01-22T01:54:33.606Z,0.00
2023-01-22T01:55:33.626Z,0.00
2023-01-22T01:56:33.647Z,0.00
2023-01-22T01:57:33.703Z,0.00
2023-01-22T01:58:33.694Z,0.00
2023-01-22T01:59:33.785Z,0.00
2023-01-22T02:00:33.908Z,0.00
2023-01-22T02:01:33.764Z,0.00
2023-01-22T02:02:33.787Z,0.00
2023-01-22T02:03:33.798Z,0.00
2023-01-22T02:04:33.814Z,0.00
2023-01-22T02:05:33.830Z,0.00
2023-01-22T02:06:33.853Z,0.00
2023-01-22T02:07:33.871Z,0.00
2023-01-22T02:08:33.893Z,0.00
2023-01-22T02:09:33.911Z,0.00
2023-01-22T02:10:33.933Z,0.00
2023-01-22T02:11:33.958Z,0.00
2023-01-22T02:12:33.977Z,0.00
2023-01-22T02:13:33.999Z,0.00
2023-01-22T02:14:34.017Z,0.00
2023-01-22T02:15:34.037Z,0.00
2023-01-22T02:16:34.257Z,0.00
2023-01-22T02:17:34.083Z,0.00
2023-01-22T02:18:34.099Z,0.00
2023-01-22T02:19:34.119Z,0.00
2023-01-22T02:20:34.141Z,0.00
2023-01-22T02:21:34.158Z,0.00
2023-01-22T02:22:34.179Z,0.00
2023-01-22T02:23:34.210Z,0.00
2023-01-22T02:24:34.224Z,0.00
2023-01-22T02:25:34.239Z,0.00
2023-01-22T02:26:34.265Z,0.00
2023-01-22T02:27:34.280Z,0.00
2023-01-22T02:28:34.302Z,0.00
2023-01-22T02:29:34.320Z,0.00
2023-01-22T02:30:34.366Z,0.00
2023-01-22T02:31:34.405Z,0.00
2023-01-22T02:32:34.503Z,0.00
2023-01-22T02:33:34.402Z,0.00
2023-01-22T02:34:34.437Z,0.00
2023-01-22T02:35:34.443Z,0.00
2023-01-22T02:36:34.466Z,0.00
2023-01-22T02:37:34.485Z,0.00
2023-01-22T02:38:34.505Z,0.00
2023-01-22T02:39:34.549Z,0.00
2023-01-22T02:40:34.547Z,0.00
2023-01-22T02:41:34.565Z,0.00
2023-01-22T02:42:34.685Z,0.00
2023-01-22T02:43:34.606Z,0.00
2023-01-22T02:44:34.630Z,0.00
2023-01-22T02:45:34.690Z,0.00
2023-01-22T02:46:34.669Z,0.00
2023-01-22T02:47:34.688Z,0.00
2023-01-22T02:48:34.826Z,0.00
2023-01-22T02:49:34.728Z,0.00
2023-01-22T02:50:34.752Z,0.00
2023-01-22T02:51:34.776Z,0.00
2023-01-22T02:52:34.791Z,0.00
2023-01-22T02:53:34.816Z,0.00
2023-01-22T02:54:34.833Z,0.00
2023-01-22T02:55:34.855Z,0.00
2023-01-22T02:56:34.888Z,0.00
2023-01-22T02:57:34.894Z,0.00
2023-01-22T02:58:34.925Z,0.00
2023-01-22T02:59:34.934Z,0.00
2023-01-22T03:00:34.959Z,0.00
2023-01-22T03:01:34.975Z,0.00
2023-01-22T03:02:35.000Z,0.00
2023-01-22T03:03:35.032Z,0.00
2023-01-22T03:04:35.163Z,0.00
2023-01-22T03:05:35.060Z,0.00
2023-01-22T03:06:35.080Z,0.00
2023-01-22T03:07:35.099Z,0.00
2023-01-22T03:08:35.121Z,0.00
2023-01-22T03:09:35.138Z,0.00
2023-01-22T03:10:35.163Z,0.00
2023-01-22T03:11:35.183Z,0.00
2023-01-22T03:12:35.202Z,0.00
2023-01-22T03:13:35.220Z,0.00
2023-01-22T03:14:35.249Z,0.00
2023-01-22T03:15:35.272Z,0.00
2023-01-22T03:16:35.368Z,0.00
2023-01-22T03:17:35.306Z,0.00
2023-01-22T03:18:35.332Z,0.00
2023-01-22T03:19:35.344Z,0.00
2023-01-22T03:20:35.481Z,0.00
2023-01-22T03:21:35.387Z,0.00
2023-01-22T03:22:35.405Z,0.00
2023-01-22T03:23:35.424Z,0.00
2023-01-22T03:24:35.447Z,0.00
2023-01-22T03:25:35.470Z,0.00
2023-01-22T03:26:35.491Z,0.00
2023-01-22T03:27:35.508Z,0.00
2023-01-22T03:28:35.529Z,0.00
2023-01-22T03:29:35.550Z,0.00
2023-01-22T03:30:35.572Z,0.00
2023-01-22T03:31:35.673Z,0.00
2023-01-22T03:32:35.612Z,0.00
2023-01-22T03:33:35.634Z,0.00
2023-01-22T03:34:35.653Z,0.00
2023-01-22T03:35:35.677Z,0.00
2023-01-22T03:36:35.814Z,0.00
2023-01-22T03:37:35.716Z,0.00
2023-01-22T03:38:35.734Z,0.00
2023-01-22T03:39:35.753Z,0.00
2023-01-22T03:40:35.783Z,0.00
2023-01-22T03:41:35.798Z,0.00
2023-01-22T03:42:35.819Z,0.00
2023-01-22T03:43:35.847Z,0.00
2023-01-22T03:44:35.861Z,0.00
2023-01-22T03:45:35.912Z,0.00
2023-01-22T03:46:35.900Z,0.00
2023-01-22T03:47:35.917Z,0.00
2023-01-22T03:48:35.951Z,0.00
2023-01-22T03:49:35.963Z,0.00
2023-01-22T03:50:35.985Z,0.00
2023-01-22T03:51:36.000Z,0.00
2023-01-22T03:52:36.134Z,0.00
2023-01-22T03:53:36.043Z,0.00
2023-01-22T03:54:36.064Z,0.00
2023-01-22T03:55:36.083Z,0.00
2023-01-22T03:56:36.107Z,0.00
2023-01-22T03:57:36.122Z,0.00
2023-01-22T03:58:36.146Z,0.00
2023-01-22T03:59:36.168Z,0.00
2023-01-22T04:00:36.186Z,0.00
2023-01-22T04:01:36.204Z,0.00
2023-01-22T04:02:36.296Z,0.00
2023-01-22T04:03:36.253Z,0.00
2023-01-22T04:04:36.268Z,0.00
2023-01-22T04:05:36.287Z,0.00
2023-01-22T04:06:36.315Z,0.00
2023-01-22T04:07:36.327Z,0.00
2023-01-22T04:08:36.462Z,0.00
2023-01-22T04:09:36.369Z,0.00
2023-01-22T04:10:36.392Z,0.00
2023-01-22T04:11:36.412Z,0.00
2023-01-22T04:12:36.438Z,0.00
2023-01-22T04:13:36.451Z,0.00
2023-01-22T04:14:36.476Z,0.00
2023-01-22T04:15:36.490Z,0.00
2023-01-22T04:16:36.602Z,0.00
2023-01-22T04:17:36.555Z,0.00
2023-01-22T04:18:36.554Z,0.00
2023-01-22T04:19:36.576Z,0.00
2023-01-22T04:20:36.597Z,0.00
2023-01-22T04:21:36.616Z,0.00
2023-01-22T04:22:36.637Z,0.00
2023-01-22T04:23:36.663Z,0.00
2023-01-22T04:24:36.806Z,0.00
2023-01-22T04:25:36.698Z,0.00
2023-01-22T04:26:36.722Z,0.00
2023-01-22T04:27:36.739Z,0.00
2023-01-22T04:28:36.761Z,0.00
2023-01-22T04:29:36.781Z,0.00
2023-01-22T04:30:36.868Z,0.00
2023-01-22T04:31:36.906Z,0.00
2023-01-22T04:32:36.842Z,0.00
2023-01-22T04:33:36.864Z,0.00
2023-01-22T04:34:36.890Z,0.00
2023-01-22T04:35:36.903Z,0.00
2023-01-22T04:36:36.932Z,0.00
2023-01-22T04:37:36.948Z,0.00
2023-01-22T04:38:36.968Z,0.00
2023-01-22T04:39:36.989Z,0.00
2023-01-22T04:40:37.127Z,0.00
2023-01-22T04:41:37.031Z,0.00
2023-01-22T04:42:37.052Z,0.00
2023-01-22T04:43:37.091Z,0.00
2023-01-22T04:44:37.093Z,0.00
2023-01-22T04:45:37.110Z,0.00
2023-01-22T04:46:37.132Z,0.00
2023-01-22T04:47:37.151Z,0.00
2023-01-22T04:48:37.181Z,0.00
2023-01-22T04:49:37.192Z,0.00
2023-01-22T04:50:37.236Z,0.00
2023-01-22T04:51:37.233Z,0.00
2023-01-22T04:52:37.262Z,0.00
2023-01-22T04:53:37.274Z,0.00
2023-01-22T04:54:37.297Z,0.00
2023-01-22T04:55:37.316Z,0.00
2023-01-22T04:56:37.462Z,0.00
2023-01-22T04:57:37.357Z,0.00
2023-01-22T04:58:37.381Z,0.00
2023-01-22T04:59:37.398Z,0.00
2023-01-22T05:00:37.428Z,0.00
2023-01-22T05:01:37.533Z,0.00
2023-01-22T05:02:37.599Z,0.00
2023-01-22T05:03:37.480Z,0.00
2023-01-22T05:04:37.504Z,0.00
2023-01-22T05:05:37.527Z,0.00
2023-01-22T05:06:37.546Z,0.00
2023-01-22T05:07:37.577Z,0.00
2023-01-22T05:08:37.591Z,0.00
2023-01-22T05:09:37.611Z,0.00
2023-01-22T05:10:37.632Z,0.00
2023-01-22T05:11:37.646Z,0.00
2023-01-22T05:12:43.659Z,0.00
2023-01-22T05:13:37.813Z,0.00
2023-01-22T05:14:37.712Z,0.00
2023-01-22T05:15:37.803Z,0.00
2023-01-22T05:16:37.754Z,0.00
2023-01-22T05:17:37.774Z,0.00
2023-01-22T05:18:37.798Z,0.00
2023-01-22T05:19:37.823Z,0.00
2023-01-22T05:20:37.834Z,0.00
2023-01-22T05:21:37.854Z,0.00
2023-01-22T05:22:37.875Z,0.00
2023-01-22T05:23:37.895Z,0.00
2023-01-22T05:24:37.929Z,0.00
2023-01-22T05:25:37.942Z,0.00
2023-01-22T05:26:37.960Z,0.00
2023-01-22T05:27:37.985Z,0.00
2023-01-22T05:28:38.000Z,0.00
2023-01-22T05:29:38.140Z,0.00
2023-01-22T05:30:38.064Z,0.00
2023-01-22T05:31:38.101Z,0.00
2023-01-22T05:32:38.104Z,0.00
2023-01-22T05:33:38.103Z,0.00
2023-01-22T05:34:38.126Z,0.00
2023-01-22T05:35:38.164Z,0.00
2023-01-22T05:36:38.169Z,0.00
2023-01-22T05:37:38.185Z,0.00
2023-01-22T05:38:38.210Z,0.00
2023-01-22T05:39:38.233Z,0.00
2023-01-22T05:40:38.248Z,0.00
2023-01-22T05:41:38.289Z,0.00
2023-01-22T05:42:38.292Z,0.00
2023-01-22T05:43:38.321Z,0.00
2023-01-22T05:44:38.334Z,0.00
2023-01-22T05:45:38.464Z,0.00
2023-01-22T05:46:38.375Z,0.00
2023-01-22T05:47:38.399Z,0.00
2023-01-22T05:48:38.414Z,0.00
2023-01-22T05:49:38.439Z,0.00
2023-01-22T05:50:38.458Z,0.00
2023-01-22T05:51:38.477Z,0.00
2023-01-22T05:52:38.505Z,0.00
2023-01-22T05:53:38.519Z,0.00
2023-01-22T05:54:38.550Z,0.00
2023-01-22T05:55:38.565Z,0.00
2023-01-22T05:56:38.587Z,0.00
2023-01-22T05:57:38.605Z,0.00
2023-01-22T05:58:38.627Z,0.00
2023-01-22T05:59:38.650Z,0.00
2023-01-22T06:00:38.669Z,0.00
2023-01-22T06:01:38.799Z,0.00
2023-01-22T06:02:38.767Z,0.00
2023-01-22T06:03:38.784Z,0.00
2023-01-22T06:04:38.755Z,0.00
2023-01-22T06:05:38.773Z,0.00
2023-01-22T06:06:38.797Z,0.00
2023-01-22T06:07:38.813Z,0.00
2023-01-22T06:08:38.837Z,0.00
2023-01-22T06:09:38.863Z,0.00
2023-01-22T06:10:38.879Z,0.00
2023-01-22T06:11:38.897Z,0.00
2023-01-22T06:12:38.919Z,0.00
2023-01-22T06:13:38.939Z,0.00
2023-01-22T06:14:38.965Z,0.00
2023-01-22T06:15:39.020Z,0.00
2023-01-22T06:16:39.004Z,0.00
2023-01-22T06:17:39.153Z,0.00
2023-01-22T06:18:39.050Z,0.00
2023-01-22T06:19:39.076Z,0.00
2023-01-22T06:20:39.088Z,0.00
2023-01-22T06:21:39.113Z,0.00
2023-01-22T06:22:39.130Z,0.00
2023-01-22T06:23:39.161Z,0.00
2023-01-22T06:24:39.175Z,0.00
2023-01-22T06:25:39.195Z,0.00
2023-01-22T06:26:39.225Z,0.00
2023-01-22T06:27:39.240Z,0.00
2023-01-22T06:28:39.258Z,0.00
2023-01-22T06:29:40.304Z,0.00
2023-01-22T06:30:39.340Z,0.00
2023-01-22T06:31:39.409Z,0.00
2023-01-22T06:32:39.340Z,0.00
2023-01-22T06:33:39.477Z,0.00
2023-01-22T06:34:39.382Z,0.00
2023-01-22T06:35:39.403Z,0.00
2023-01-22T06:36:40.939Z,0.00
2023-01-22T06:37:39.452Z,0.00
2023-01-22T06:38:39.472Z,0.00
2023-01-22T06:39:39.495Z,0.00
2023-01-22T06:40:39.509Z,0.00
2023-01-22T06:41:39.532Z,0.00
2023-01-22T06:42:39.554Z,0.00
2023-01-22T06:43:39.573Z,0.00
2023-01-22T06:44:39.594Z,0.00
2023-01-22T06:45:39.637Z,0.00
2023-01-22T06:46:39.717Z,0.00
2023-01-22T06:47:39.658Z,0.00
2023-01-22T06:48:39.676Z,0.00
2023-01-22T06:49:39.819Z,0.00
2023-01-22T06:50:39.729Z,0.00
2023-01-22T06:51:39.760Z,0.00
2023-01-22T06:52:39.765Z,0.00
2023-01-22T06:53:39.782Z,0.00
2023-01-22T06:54:39.803Z,0.00
2023-01-22T06:55:39.825Z,4.00
2023-01-22T06:56:39.846Z,4.00
2023-01-22T06:57:39.870Z,0.00
2023-01-22T06:58:39.887Z,0.00
2023-01-22T06:59:39.910Z,4.00
2023-01-22T07:00:39.938Z,4.00
2023-01-22T07:01:40.058Z,4.00
2023-01-22T07:02:39.972Z,4.00
2023-01-22T07:03:40.025Z,8.00
2023-01-22T07:04:40.036Z,8.00
2023-01-22T07:05:40.160Z,8.00
2023-01-22T07:06:40.059Z,8.00
2023-01-22T07:07:40.075Z,8.00
2023-01-22T07:08:40.095Z,12.00
2023-01-22T07:09:40.119Z,12.00
2023-01-22T07:10:40.142Z,16.00
2023-01-22T07:11:40.164Z,20.00
2023-01-22T07:12:40.182Z,20.00
2023-01-22T07:13:40.203Z,24.00
2023-01-22T07:14:40.225Z,24.00
2023-01-22T07:15:40.259Z,28.00
2023-01-22T07:16:40.267Z,28.00
2023-01-22T07:17:40.307Z,32.00
2023-01-22T07:18:40.304Z,36.00
2023-01-22T07:19:40.325Z,40.00
2023-01-22T07:20:40.346Z,44.00
2023-01-22T07:21:40.526Z,48.00
2023-01-22T07:22:40.387Z,48.00
2023-01-22T07:23:40.428Z,52.00
2023-01-22T07:24:40.429Z,56.00
2023-01-22T07:25:40.452Z,56.00
2023-01-22T07:26:40.471Z,68.00
2023-01-22T07:27:40.496Z,72.00
2023-01-22T07:28:40.513Z,72.00
2023-01-22T07:29:40.533Z,72.00
2023-01-22T07:30:40.589Z,76.00
2023-01-22T07:31:40.619Z,76.00
2023-01-22T07:32:40.599Z,76.00
2023-01-22T07:33:40.619Z,80.00
2023-01-22T07:34:40.640Z,84.00
2023-01-22T07:35:40.661Z,88.00
2023-01-22T07:36:40.680Z,96.00
2023-01-22T07:37:40.837Z,100.00
2023-01-22T07:38:40.721Z,108.00
2023-01-22T07:39:40.741Z,112.00
2023-01-22T07:40:40.765Z,132.00
2023-01-22T07:41:40.790Z,148.00
2023-01-22T07:42:40.810Z,160.00
2023-01-22T07:43:40.826Z,184.00
2023-01-22T07:44:40.865Z,204.00
2023-01-22T07:45:40.888Z,208.00
2023-01-22T07:46:40.925Z,212.00
2023-01-22T07:47:40.909Z,220.00
2023-01-22T07:48:40.930Z,224.00
2023-01-22T07:49:40.952Z,212.00
2023-01-22T07:50:40.982Z,196.00
2023-01-22T07:51:40.994Z,192.00
2023-01-22T07:52:41.033Z,184.00
2023-01-22T07:53:41.155Z,184.00
2023-01-22T07:54:41.096Z,176.00
2023-01-22T07:55:41.076Z,176.00
2023-01-22T07:56:41.100Z,184.00
2023-01-22T07:57:41.118Z,196.00
2023-01-22T07:58:41.188Z,216.00
2023-01-22T07:59:41.160Z,252.00
2023-01-22T08:00:41.216Z,312.00
2023-01-22T08:01:41.278Z,348.00
2023-01-22T08:02:41.222Z,376.00
2023-01-22T08:03:41.244Z,384.00
2023-01-22T08:04:41.267Z,384.00
2023-01-22T08:05:41.285Z,384.00
2023-01-22T08:06:41.306Z,392.00
2023-01-22T08:07:41.329Z,396.00
2023-01-22T08:08:41.363Z,388.00
2023-01-22T08:09:41.486Z,372.00
2023-01-22T08:10:41.388Z,356.00
2023-01-22T08:11:41.413Z,348.00
2023-01-22T08:12:41.432Z,340.00
2023-01-22T08:13:41.465Z,336.00
2023-01-22T08:14:41.490Z,352.00
2023-01-22T08:15:41.492Z,376.00
2023-01-22T08:16:41.565Z,416.00
2023-01-22T08:17:41.544Z,464.00
2023-01-22T08:18:41.564Z,520.00
2023-01-22T08:19:41.577Z,568.00
2023-01-22T08:20:41.596Z,588.00
2023-01-22T08:21:41.625Z,592.00
2023-01-22T08:22:41.642Z,596.00
2023-01-22T08:23:43.056Z,588.00
2023-01-22T08:24:41.681Z,596.00
2023-01-22T08:25:41.819Z,576.00
2023-01-22T08:26:41.723Z,568.00
2023-01-22T08:27:41.748Z,588.00
2023-01-22T08:28:41.769Z,584.00
2023-01-22T08:29:41.789Z,564.00
2023-01-22T08:30:46.391Z,532.00
2023-01-22T08:31:42.018Z,516.00
2023-01-22T08:32:41.870Z,516.00
2023-01-22T08:33:41.872Z,524.00
2023-01-22T08:34:41.891Z,540.00
2023-01-22T08:35:41.919Z,552.00
2023-01-22T08:36:41.933Z,532.00
2023-01-22T08:37:41.955Z,508.00
2023-01-22T08:38:41.983Z,524.00
2023-01-22T08:39:42.001Z,540.00
2023-01-22T08:40:42.029Z,544.00
2023-01-22T08:41:42.156Z,516.00
2023-01-22T08:42:42.072Z,552.00
2023-01-22T08:43:42.088Z,548.00
2023-01-22T08:44:42.100Z,528.00
2023-01-22T08:45:42.228Z,548.00
2023-01-22T08:46:42.150Z,604.00
2023-01-22T08:47:42.165Z,640.00
2023-01-22T08:48:42.186Z,676.00
2023-01-22T08:49:42.206Z,704.00
2023-01-22T08:50:42.229Z,736.00
2023-01-22T08:51:42.256Z,784.00
2023-01-22T08:52:42.268Z,812.00
2023-01-22T08:53:42.292Z,820.00
2023-01-22T08:54:42.311Z,836.00
2023-01-22T08:55:42.336Z,888.00
2023-01-22T08:56:42.353Z,940.00
2023-01-22T08:57:42.493Z,980.00
2023-01-22T08:58:42.403Z,1044.00
2023-01-22T08:59:44.919Z,1108.00
2023-01-22T09:00:42.463Z,1156.00
2023-01-22T09:01:42.463Z,1208.00
2023-01-22T09:02:42.479Z,1256.00
2023-01-22T09:03:42.519Z,1324.00
2023-01-22T09:04:42.524Z,1452.00
2023-01-22T09:05:42.543Z,1480.00
2023-01-22T09:06:42.567Z,1556.00
2023-01-22T09:07:42.586Z,1540.00
2023-01-22T09:08:42.606Z,1540.00
2023-01-22T09:09:42.628Z,1596.00
2023-01-22T09:10:42.649Z,1564.00
2023-01-22T09:11:42.671Z,1472.00
2023-01-22T09:12:42.688Z,1416.00
2023-01-22T09:13:42.857Z,1428.00
2023-01-22T09:14:42.733Z,1440.00
2023-01-22T09:15:42.761Z,1404.00
2023-01-22T09:16:42.836Z,1356.00
2023-01-22T09:17:42.801Z,1304.00
2023-01-22T09:18:42.816Z,1232.00
2023-01-22T09:19:42.838Z,1156.00
2023-01-22T09:20:42.858Z,1148.00
2023-01-22T09:21:42.881Z,1208.00
2023-01-22T09:22:42.901Z,1184.00
2023-01-22T09:23:42.924Z,1144.00
2023-01-22T09:24:42.944Z,1140.00
2023-01-22T09:25:42.969Z,1124.00
2023-01-22T09:26:42.985Z,1124.00
2023-01-22T09:27:43.010Z,1120.00
2023-01-22T09:28:43.028Z,1136.00
2023-01-22T09:29:43.222Z,1104.00
2023-01-22T09:30:43.177Z,1064.00
2023-01-22T09:31:43.216Z,1048.00
2023-01-22T09:32:43.124Z,1024.00
2023-01-22T09:33:43.138Z,1052.00
2023-01-22T09:34:43.155Z,1088.00
2023-01-22T09:35:43.181Z,1156.00
2023-01-22T09:36:43.240Z,1280.00
2023-01-22T09:37:43.254Z,1428.00
2023-01-22T09:38:43.238Z,1548.00
2023-01-22T09:39:43.264Z,1640.00
2023-01-22T09:40:43.292Z,1720.00
2023-01-22T09:41:43.307Z,1800.00
2023-01-22T09:42:43.342Z,1892.00
2023-01-22T09:43:43.345Z,1968.00
2023-01-22T09:44:43.369Z,2060.00
2023-01-22T09:45:43.620Z,2176.00
2023-01-22T09:46:43.412Z,2336.00
2023-01-22T09:47:43.434Z,2476.00
2023-01-22T09:48:43.451Z,2584.00
2023-01-22T09:49:43.475Z,2708.00
2023-01-22T09:50:43.900Z,2940.00
2023-01-22T09:51:43.517Z,3248.00
2023-01-22T09:52:43.536Z,3460.00
2023-01-22T09:53:43.559Z,3464.00
2023-01-22T09:54:43.583Z,3356.00
2023-01-22T09:55:43.607Z,3212.00
2023-01-22T09:56:43.622Z,3064.00
2023-01-22T09:57:43.644Z,2900.00
2023-01-22T09:58:43.665Z,2752.00
2023-01-22T09:59:43.687Z,2640.00
2023-01-22T10:00:43.708Z,2640.00
2023-01-22T10:01:43.846Z,2776.00
2023-01-22T10:02:43.804Z,2964.00
2023-01-22T10:03:43.775Z,3160.00
2023-01-22T10:04:43.798Z,3384.00
2023-01-22T10:05:43.819Z,3532.00
2023-01-22T10:06:43.836Z,3512.00
2023-01-22T10:07:43.867Z,3396.00
2023-01-22T10:08:43.880Z,3236.00
2023-01-22T10:09:43.903Z,3108.00
2023-01-22T10:10:43.935Z,3076.00
2023-01-22T10:11:43.944Z,3084.00
2023-01-22T10:12:43.965Z,3084.00
2023-01-22T10:13:43.993Z,3056.00
2023-01-22T10:14:44.008Z,3032.00
2023-01-22T10:15:44.030Z,3036.00
2023-01-22T10:16:44.054Z,3232.00
2023-01-22T10:17:44.188Z,3500.00
2023-01-22T10:18:44.108Z,3744.00
2023-01-22T10:19:44.115Z,3836.00
2023-01-22T10:20:44.140Z,3768.00
2023-01-22T10:21:44.160Z,3632.00
2023-01-22T10:22:44.184Z,3400.00
2023-01-22T10:23:44.204Z,3104.00
2023-01-22T10:24:44.227Z,2864.00
2023-01-22T10:25:44.246Z,2772.00
2023-01-22T10:26:44.270Z,2828.00
2023-01-22T10:27:44.304Z,3004.00
2023-01-22T10:28:44.313Z,3180.00
2023-01-22T10:29:44.333Z,3388.00
2023-01-22T10:30:44.422Z,3728.00
2023-01-22T10:31:44.482Z,4144.00
2023-01-22T10:32:44.396Z,4388.00
2023-01-22T10:33:44.547Z,4500.00
2023-01-22T10:34:44.442Z,4452.00
2023-01-22T10:35:44.460Z,4352.00
2023-01-22T10:36:44.485Z,4340.00
2023-01-22T10:37:44.505Z,4312.00
2023-01-22T10:38:44.529Z,4212.00
2023-01-22T10:39:44.564Z,4188.00
2023-01-22T10:40:44.572Z,4208.00
2023-01-22T10:41:44.593Z,4200.00
2023-01-22T10:42:44.614Z,4160.00
2023-01-22T10:43:44.687Z,3928.00
2023-01-22T10:44:44.663Z,3732.00
2023-01-22T10:45:44.731Z,3692.00
2023-01-22T10:46:44.703Z,3640.00
2023-01-22T10:47:44.729Z,3528.00
2023-01-22T10:48:44.750Z,3420.00
2023-01-22T10:49:44.883Z,3384.00
2023-01-22T10:50:44.789Z,3308.00
2023-01-22T10:51:44.812Z,3236.00
2023-01-22T10:52:44.839Z,3312.00
2023-01-22T10:53:44.853Z,3496.00
2023-01-22T10:54:44.887Z,3620.00
2023-01-22T10:55:44.906Z,3712.00
2023-01-22T10:56:44.920Z,3808.00
2023-01-22T10:57:44.942Z,3796.00
2023-01-22T10:58:44.965Z,3796.00
2023-01-22T10:59:44.986Z,3872.00
2023-01-22T11:00:51.856Z,3880.00
2023-01-22T11:01:45.078Z,3848.00
2023-01-22T11:02:45.098Z,3924.00
2023-01-22T11:03:45.074Z,4064.00
2023-01-22T11:04:45.098Z,4056.00
2023-01-22T11:05:45.245Z,4128.00
2023-01-22T11:06:45.139Z,4320.00
2023-01-22T11:07:45.177Z,4300.00
2023-01-22T11:08:45.190Z,4112.00
2023-01-22T11:09:45.206Z,3652.00
2023-01-22T11:10:45.240Z,3308.00
2023-01-22T11:11:45.251Z,3188.00
2023-01-22T11:12:45.277Z,3112.00
2023-01-22T11:13:45.299Z,3080.00
2023-01-22T11:14:45.322Z,3012.00
2023-01-22T11:15:45.391Z,2804.00
2023-01-22T11:16:45.365Z,2708.00
2023-01-22T11:17:45.386Z,2632.00
2023-01-22T11:18:45.409Z,2656.00
2023-01-22T11:19:46.161Z,2752.00
2023-01-22T11:20:45.455Z,2924.00
2023-01-22T11:21:45.590Z,2940.00
2023-01-22T11:22:45.499Z,2828.00
2023-01-22T11:23:45.522Z,2996.00
2023-01-22T11:24:45.541Z,3108.00
2023-01-22T11:25:45.563Z,3016.00
2023-01-22T11:26:45.588Z,2804.00
2023-01-22T11:27:45.611Z,2608.00
2023-01-22T11:28:45.630Z,2444.00
2023-01-22T11:29:45.652Z,2360.00
2023-01-22T11:30:45.740Z,2328.00
2023-01-22T11:31:45.740Z,2208.00
2023-01-22T11:32:45.723Z,2036.00
2023-01-22T11:33:45.748Z,1964.00
2023-01-22T11:34:45.766Z,2036.00
2023-01-22T11:35:45.785Z,2176.00
2023-01-22T11:36:45.812Z,2284.00
2023-01-22T11:37:45.943Z,2264.00
2023-01-22T11:38:45.860Z,2192.00
2023-01-22T11:39:45.882Z,2192.00
2023-01-22T11:40:45.896Z,2236.00
2023-01-22T11:41:45.922Z,2204.00
2023-01-22T11:42:45.940Z,1996.00
2023-01-22T11:43:45.961Z,1768.00
2023-01-22T11:44:45.984Z,1644.00
2023-01-22T11:45:46.019Z,1632.00
2023-01-22T11:46:46.030Z,1680.00
2023-01-22T11:47:46.048Z,1720.00
2023-01-22T11:48:46.074Z,1636.00
2023-01-22T11:49:46.093Z,1528.00
2023-01-22T11:50:46.117Z,1500.00
2023-01-22T11:51:46.137Z,1556.00
2023-01-22T11:52:46.161Z,1592.00
2023-01-22T11:53:46.302Z,1576.00
2023-01-22T11:54:46.206Z,1520.00
2023-01-22T11:55:46.234Z,1488.00
2023-01-22T11:56:46.249Z,1520.00
2023-01-22T11:57:46.275Z,1544.00
2023-01-22T11:58:46.297Z,1564.00
2023-01-22T11:59:46.331Z,1576.00
2023-01-22T12:00:46.336Z,1568.00
2023-01-22T12:01:46.363Z,1624.00
2023-01-22T12:02:46.454Z,1680.00
2023-01-22T12:03:46.524Z,1692.00
2023-01-22T12:04:46.425Z,1644.00
2023-01-22T12:05:46.450Z,1624.00
2023-01-22T12:06:46.477Z,1584.00
2023-01-22T12:07:46.498Z,1560.00
2023-01-22T12:08:46.519Z,1660.00
2023-01-22T12:09:46.650Z,1820.00
2023-01-22T12:10:46.558Z,1976.00
2023-01-22T12:11:46.582Z,2056.00
2023-01-22T12:12:46.609Z,1876.00
2023-01-22T12:13:46.623Z,1600.00
2023-01-22T12:14:46.649Z,1436.00
2023-01-22T12:15:46.683Z,1436.00
2023-01-22T12:16:46.692Z,1564.00
2023-01-22T12:17:46.713Z,1672.00
2023-01-22T12:18:46.736Z,1692.00
2023-01-22T12:19:46.758Z,1636.00
2023-01-22T12:20:46.784Z,1548.00
2023-01-22T12:21:46.804Z,1492.00
2023-01-22T12:22:46.826Z,1536.00
2023-01-22T12:23:46.844Z,1568.00
2023-01-22T12:24:46.867Z,1532.00
2023-01-22T12:25:47.002Z,1496.00
2023-01-22T12:26:46.910Z,1428.00
2023-01-22T12:27:46.931Z,1436.00
2023-01-22T12:28:46.958Z,1448.00
2023-01-22T12:29:46.976Z,1440.00
2023-01-22T12:30:47.025Z,1424.00
2023-01-22T12:31:47.050Z,1412.00
2023-01-22T12:32:47.049Z,1412.00
2023-01-22T12:33:47.067Z,1412.00
2023-01-22T12:34:47.089Z,1404.00
2023-01-22T12:35:47.113Z,1424.00
2023-01-22T12:36:47.133Z,1424.00
2023-01-22T12:37:47.153Z,1412.00
2023-01-22T12:38:47.177Z,1396.00
2023-01-22T12:39:47.201Z,1388.00
2023-01-22T12:40:47.222Z,1400.00
2023-01-22T12:41:47.364Z,1388.00
2023-01-22T12:42:47.264Z,1332.00
2023-01-22T12:43:47.286Z,1288.00
2023-01-22T12:44:47.312Z,1248.00
2023-01-22T12:45:47.332Z,1208.00
2023-01-22T12:46:47.469Z,1168.00
2023-01-22T12:47:47.374Z,1160.00
2023-01-22T12:48:47.396Z,1172.00